Alderpoint, CA

1:19 PM PST on November 17, 2017 (GMT -0800)
Kimtu | | Change Station
Active Advisory: Freeze Warning

Elev 302 ft 40.08 °N, 123.82 °W | Updated 1 second ago

Clear
Clear
57.2 °F
Feels Like 57.2 °F
N
0.9
Wind Variable Wind from SE
Gusts 2.5 mph

Today
High -- | Low -- °F
--% Chance of Precip.
Yesterday
High -- | Low -- °F
Precip. -- in
Pressure 30.26 in
Visibility 10.0 miles
Clouds Few 2900 ft
Dew Point 44 °F
Humidity 60%
Rainfall 0.00 in
Snow Depth Not available.
7:02 AM 4:55 PM
Waning Crescent, 0% visible
METAR KFOT 172055Z AUTO 32008KT 10SM FEW029 13/06 A3026 RMK AO1
Pressure 30.26 in
Visibility 10.0 miles
Clouds Few 2900 ft
Dew Point 44 °F
Humidity 60%
Rainfall 0.00 in
Snow Depth Not available.
7:02 AM 4:55 PM
Waning Crescent, 0% visible
METAR KFOT 172055Z AUTO 32008KT 10SM FEW029 13/06 A3026 RMK AO1

Get Your Daily Forecast Email!

Thanks for signing up!

Be on the lookout for a verification email in your inbox.

You'll start receiving severe weather alerts in your inbox..

×

10-Day Weather Forecast

Almanac

Astronomy

Nov. 17, 2017 Rise Set
Actual Time
Civil Twilight
Nautical Twilight
Astronomical Twilight
Moon
Length of Visible Light
Length of Day
Tomorrow will be .
, % of the Moon is Illuminated

Today's Extremes

State Highs State Lows

Community

WunderPhotos

Category 6

Welcome to Category 6. This is the collective home for Weather Underground's featured writeups by Dr. Jeff Masters (right), Bob Henson (left), Chris Burt, and other regular contributors.

Nearby

Air Quality

  Air Quality AQ Index Pollutant
Not available.

Snow Depth

Station Depth Elevation

Earthquake Activity

City Distance Mag. Time & Date
Minimum magnitude displayed is 2.5.

Coastal Water Temperatures

Place Temperature

Stations

Nearby Weather Stations

Station Location Temp. Windchill Dew Point Humidity Wind Precip. Elev Updated Type
                   

Watches & Warnings

Freeze Warning
Issued: 3:06 AM PST Nov. 17, 2017 – National Weather Service

... Freeze warning in effect from 3 am to 8 am PST Saturday...

The National Weather Service in Eureka has issued a freeze
warning... which is in effect from 3 am to 8 am PST Saturday.

* Low temperatures... mid 20s to lower 30s.

* Locations include... Gasquet... Petrolia... Honeydew...
ettersberg... Orleans... Willow Creek... Garberville... Bridgeville
and Ukiah.

* For a detailed view of the hazard area... visit
http://www.Wrh.NOAA.Gov/map

Precautionary/preparedness actions...

A freeze warning means sub-freezing temperatures are imminent or
highly likely. These conditions will kill crops and other
sensitive vegetation.